sensor_id;sensor_type;location;lat;lon;timestamp;P1;durP1;ratioP1;P2;durP2;ratioP2
17997;SDS011;9124;48.144;17.098;2022-09-03T00:02:37;3.53;;;2.10;;
17997;SDS011;9124;48.144;17.098;2022-09-03T00:06:43;2.95;;;1.80;;
17997;SDS011;9124;48.144;17.098;2022-09-03T00:18:52;4.00;;;2.67;;
17997;SDS011;9124;48.144;17.098;2022-09-03T00:22:38;4.75;;;2.42;;
17997;SDS011;9124;48.144;17.098;2022-09-03T00:26:24;3.45;;;2.20;;
17997;SDS011;9124;48.144;17.098;2022-09-03T00:33:48;2.70;;;2.50;;
17997;SDS011;9124;48.144;17.098;2022-09-03T00:37:27;5.78;;;2.00;;
17997;SDS011;9124;48.144;17.098;2022-09-03T00:41:07;2.13;;;2.03;;
17997;SDS011;9124;48.144;17.098;2022-09-03T00:45:15;2.38;;;2.20;;
17997;SDS011;9124;48.144;17.098;2022-09-03T00:56:47;3.65;;;1.95;;
17997;SDS011;9124;48.144;17.098;2022-09-03T01:00:34;3.55;;;2.00;;
17997;SDS011;9124;48.144;17.098;2022-09-03T01:04:28;3.30;;;1.90;;
17997;SDS011;9124;48.144;17.098;2022-09-03T01:24:37;2.42;;;1.77;;
17997;SDS011;9124;48.144;17.098;2022-09-03T01:32:36;4.38;;;2.53;;
17997;SDS011;9124;48.144;17.098;2022-09-03T01:44:10;2.15;;;1.95;;
17997;SDS011;9124;48.144;17.098;2022-09-03T01:53:24;2.42;;;1.77;;
17997;SDS011;9124;48.144;17.098;2022-09-03T02:01:04;3.70;;;2.05;;
17997;SDS011;9124;48.144;17.098;2022-09-03T02:09:04;2.78;;;2.22;;
17997;SDS011;9124;48.144;17.098;2022-09-03T02:12:43;6.47;;;2.20;;
17997;SDS011;9124;48.144;17.098;2022-09-03T02:16:29;3.25;;;2.58;;
17997;SDS011;9124;48.144;17.098;2022-09-03T02:20:09;4.55;;;2.60;;
17997;SDS011;9124;48.144;17.098;2022-09-03T02:23:51;2.85;;;2.00;;
17997;SDS011;9124;48.144;17.098;2022-09-03T02:27:28;2.22;;;2.13;;
17997;SDS011;9124;48.144;17.098;2022-09-03T02:31:06;5.72;;;2.05;;
17997;SDS011;9124;48.144;17.098;2022-09-03T02:34:43;2.47;;;2.28;;
17997;SDS011;9124;48.144;17.098;2022-09-03T02:38:21;6.30;;;2.28;;
17997;SDS011;9124;48.144;17.098;2022-09-03T02:42:00;3.22;;;2.35;;
17997;SDS011;9124;48.144;17.098;2022-09-03T02:45:39;4.47;;;2.75;;
17997;SDS011;9124;48.144;17.098;2022-09-03T02:49:21;2.22;;;2.03;;
17997;SDS011;9124;48.144;17.098;2022-09-03T02:52:58;2.45;;;2.25;;
17997;SDS011;9124;48.144;17.098;2022-09-03T02:56:35;2.53;;;2.33;;
17997;SDS011;9124;48.144;17.098;2022-09-03T03:00:12;2.95;;;2.05;;
17997;SDS011;9124;48.144;17.098;2022-09-03T03:03:49;3.17;;;2.20;;
17997;SDS011;9124;48.144;17.098;2022-09-03T03:07:29;2.50;;;1.90;;
17997;SDS011;9124;48.144;17.098;2022-09-03T03:11:11;2.85;;;2.42;;
17997;SDS011;9124;48.144;17.098;2022-09-03T03:14:50;6.15;;;1.92;;
17997;SDS011;9124;48.144;17.098;2022-09-03T03:18:27;2.38;;;2.17;;
17997;SDS011;9124;48.144;17.098;2022-09-03T03:22:05;2.40;;;2.20;;
17997;SDS011;9124;48.144;17.098;2022-09-03T03:25:42;2.70;;;2.50;;
17997;SDS011;9124;48.144;17.098;2022-09-03T03:29:18;2.78;;;1.90;;
17997;SDS011;9124;48.144;17.098;2022-09-03T03:32:55;3.33;;;2.15;;
17997;SDS011;9124;48.144;17.098;2022-09-03T03:36:32;4.28;;;1.92;;
17997;SDS011;9124;48.144;17.098;2022-09-03T03:40:09;2.33;;;2.10;;
17997;SDS011;9124;48.144;17.098;2022-09-03T03:43:47;2.40;;;1.92;;
17997;SDS011;9124;48.144;17.098;2022-09-03T03:47:28;3.67;;;2.00;;
17997;SDS011;9124;48.144;17.098;2022-09-03T03:51:08;6.20;;;1.95;;
17997;SDS011;9124;48.144;17.098;2022-09-03T03:54:45;2.50;;;2.13;;
17997;SDS011;9124;48.144;17.098;2022-09-03T03:58:24;2.10;;;1.90;;
17997;SDS011;9124;48.144;17.098;2022-09-03T04:07:28;2.08;;;1.98;;
17997;SDS011;9124;48.144;17.098;2022-09-03T04:11:05;2.25;;;2.00;;
17997;SDS011;9124;48.144;17.098;2022-09-03T04:19:17;2.80;;;2.25;;
17997;SDS011;9124;48.144;17.098;2022-09-03T04:22:54;4.53;;;2.28;;
17997;SDS011;9124;48.144;17.098;2022-09-03T04:26:31;3.15;;;2.10;;
17997;SDS011;9124;48.144;17.098;2022-09-03T04:30:09;3.70;;;2.10;;
17997;SDS011;9124;48.144;17.098;2022-09-03T04:33:46;7.50;;;2.10;;
17997;SDS011;9124;48.144;17.098;2022-09-03T04:37:23;2.30;;;2.10;;
17997;SDS011;9124;48.144;17.098;2022-09-03T04:41:00;4.45;;;2.28;;
17997;SDS011;9124;48.144;17.098;2022-09-03T04:44:37;2.42;;;2.20;;
17997;SDS011;9124;48.144;17.098;2022-09-03T04:48:16;3.17;;;2.78;;
17997;SDS011;9124;48.144;17.098;2022-09-03T04:51:52;3.10;;;2.80;;
17997;SDS011;9124;48.144;17.098;2022-09-03T04:55:34;3.70;;;3.05;;
17997;SDS011;9124;48.144;17.098;2022-09-03T04:59:12;3.28;;;2.97;;
17997;SDS011;9124;48.144;17.098;2022-09-03T05:02:49;4.50;;;2.70;;
17997;SDS011;9124;48.144;17.098;2022-09-03T05:06:27;2.55;;;2.35;;
17997;SDS011;9124;48.144;17.098;2022-09-03T05:10:07;2.90;;;2.70;;
17997;SDS011;9124;48.144;17.098;2022-09-03T05:13:48;4.13;;;2.22;;
17997;SDS011;9124;48.144;17.098;2022-09-03T05:17:28;3.53;;;2.72;;
17997;SDS011;9124;48.144;17.098;2022-09-03T05:21:05;2.55;;;2.20;;
17997;SDS011;9124;48.144;17.098;2022-09-03T05:24:47;2.78;;;2.40;;
17997;SDS011;9124;48.144;17.098;2022-09-03T05:28:25;2.92;;;2.72;;
17997;SDS011;9124;48.144;17.098;2022-09-03T05:32:03;7.85;;;2.97;;
17997;SDS011;9124;48.144;17.098;2022-09-03T05:35:39;3.08;;;2.80;;
17997;SDS011;9124;48.144;17.098;2022-09-03T05:39:16;5.40;;;3.15;;
17997;SDS011;9124;48.144;17.098;2022-09-03T05:42:54;3.25;;;3.05;;
17997;SDS011;9124;48.144;17.098;2022-09-03T05:46:33;5.05;;;3.25;;
17997;SDS011;9124;48.144;17.098;2022-09-03T05:55:36;3.22;;;2.92;;
17997;SDS011;9124;48.144;17.098;2022-09-03T05:59:13;2.83;;;2.63;;
17997;SDS011;9124;48.144;17.098;2022-09-03T06:02:51;8.32;;;3.22;;
17997;SDS011;9124;48.144;17.098;2022-09-03T06:06:29;3.35;;;2.65;;
17997;SDS011;9124;48.144;17.098;2022-09-03T06:10:08;3.55;;;3.25;;
17997;SDS011;9124;48.144;17.098;2022-09-03T06:13:46;3.30;;;3.00;;
17997;SDS011;9124;48.144;17.098;2022-09-03T06:17:23;5.22;;;3.35;;
17997;SDS011;9124;48.144;17.098;2022-09-03T06:21:01;10.30;;;3.38;;
17997;SDS011;9124;48.144;17.098;2022-09-03T06:24:40;3.38;;;3.08;;
17997;SDS011;9124;48.144;17.098;2022-09-03T06:28:16;2.83;;;2.63;;
17997;SDS011;9124;48.144;17.098;2022-09-03T06:31:53;12.88;;;3.60;;
17997;SDS011;9124;48.144;17.098;2022-09-03T06:35:31;4.63;;;3.20;;
17997;SDS011;9124;48.144;17.098;2022-09-03T06:39:09;8.05;;;2.80;;
17997;SDS011;9124;48.144;17.098;2022-09-03T06:42:53;2.95;;;2.67;;
17997;SDS011;9124;48.144;17.098;2022-09-03T06:46:37;6.32;;;3.10;;
17997;SDS011;9124;48.144;17.098;2022-09-03T06:50:17;3.30;;;3.10;;
17997;SDS011;9124;48.144;17.098;2022-09-03T06:53:57;4.90;;;2.92;;
17997;SDS011;9124;48.144;17.098;2022-09-03T06:57:37;5.18;;;2.92;;
17997;SDS011;9124;48.144;17.098;2022-09-03T07:01:23;6.30;;;2.85;;
17997;SDS011;9124;48.144;17.098;2022-09-03T07:05:07;3.05;;;2.83;;
17997;SDS011;9124;48.144;17.098;2022-09-03T07:08:45;3.00;;;2.80;;
17997;SDS011;9124;48.144;17.098;2022-09-03T07:12:22;4.97;;;2.63;;
17997;SDS011;9124;48.144;17.098;2022-09-03T07:16:03;7.63;;;2.72;;
17997;SDS011;9124;48.144;17.098;2022-09-03T07:19:41;7.20;;;3.28;;
17997;SDS011;9124;48.144;17.098;2022-09-03T07:23:18;7.20;;;3.40;;
17997;SDS011;9124;48.144;17.098;2022-09-03T07:26:55;3.20;;;2.90;;
17997;SDS011;9124;48.144;17.098;2022-09-03T07:30:33;3.25;;;2.65;;
17997;SDS011;9124;48.144;17.098;2022-09-03T07:34:10;3.63;;;3.33;;
17997;SDS011;9124;48.144;17.098;2022-09-03T07:37:48;9.27;;;2.90;;
17997;SDS011;9124;48.144;17.098;2022-09-03T07:41:25;5.47;;;3.40;;
17997;SDS011;9124;48.144;17.098;2022-09-03T07:45:06;4.78;;;3.08;;
17997;SDS011;9124;48.144;17.098;2022-09-03T07:49:07;4.15;;;2.65;;
17997;SDS011;9124;48.144;17.098;2022-09-03T07:52:45;3.53;;;3.22;;
17997;SDS011;9124;48.144;17.098;2022-09-03T07:56:23;5.65;;;3.53;;
17997;SDS011;9124;48.144;17.098;2022-09-03T08:00:02;3.45;;;3.25;;
17997;SDS011;9124;48.144;17.098;2022-09-03T08:08:25;7.07;;;3.13;;
17997;SDS011;9124;48.144;17.098;2022-09-03T08:21:31;3.28;;;2.97;;
17997;SDS011;9124;48.144;17.098;2022-09-03T08:25:08;3.38;;;3.10;;
17997;SDS011;9124;48.144;17.098;2022-09-03T08:28:45;3.03;;;2.83;;
17997;SDS011;9124;48.144;17.098;2022-09-03T08:32:23;3.50;;;3.20;;
17997;SDS011;9124;48.144;17.098;2022-09-03T08:35:59;3.80;;;3.05;;
17997;SDS011;9124;48.144;17.098;2022-09-03T08:39:36;8.95;;;2.60;;
17997;SDS011;9124;48.144;17.098;2022-09-03T08:43:14;5.43;;;2.88;;
17997;SDS011;9124;48.144;17.098;2022-09-03T08:47:05;6.18;;;2.90;;
17997;SDS011;9124;48.144;17.098;2022-09-03T08:50:55;3.30;;;2.80;;
17997;SDS011;9124;48.144;17.098;2022-09-03T08:54:39;2.70;;;2.50;;
17997;SDS011;9124;48.144;17.098;2022-09-03T08:58:16;3.63;;;2.90;;
17997;SDS011;9124;48.144;17.098;2022-09-03T09:06:02;3.20;;;2.97;;
17997;SDS011;9124;48.144;17.098;2022-09-03T09:10:09;3.10;;;2.38;;
17997;SDS011;9124;48.144;17.098;2022-09-03T09:14:18;2.83;;;2.63;;
17997;SDS011;9124;48.144;17.098;2022-09-03T09:22:00;3.45;;;3.15;;
17997;SDS011;9124;48.144;17.098;2022-09-03T09:25:51;4.10;;;2.67;;
17997;SDS011;9124;48.144;17.098;2022-09-03T09:29:35;5.20;;;2.50;;
17997;SDS011;9124;48.144;17.098;2022-09-03T09:33:15;3.40;;;2.60;;
17997;SDS011;9124;48.144;17.098;2022-09-03T09:36:52;2.72;;;2.50;;
17997;SDS011;9124;48.144;17.098;2022-09-03T09:40:35;4.15;;;2.65;;
17997;SDS011;9124;48.144;17.098;2022-09-03T09:44:19;5.07;;;2.30;;
17997;SDS011;9124;48.144;17.098;2022-09-03T09:47:56;3.28;;;2.42;;
17997;SDS011;9124;48.144;17.098;2022-09-03T09:51:34;2.15;;;1.92;;
17997;SDS011;9124;48.144;17.098;2022-09-03T09:59:13;7.18;;;2.20;;
17997;SDS011;9124;48.144;17.098;2022-09-03T10:13:00;2.15;;;2.05;;
17997;SDS011;9124;48.144;17.098;2022-09-03T10:16:49;2.20;;;2.00;;
17997;SDS011;9124;48.144;17.098;2022-09-03T10:20:44;3.30;;;2.30;;
17997;SDS011;9124;48.144;17.098;2022-09-03T10:28:14;2.35;;;1.85;;
17997;SDS011;9124;48.144;17.098;2022-09-03T10:32:05;2.75;;;2.45;;
17997;SDS011;9124;48.144;17.098;2022-09-03T10:35:52;2.33;;;2.17;;
17997;SDS011;9124;48.144;17.098;2022-09-03T10:47:30;2.15;;;1.98;;
17997;SDS011;9124;48.144;17.098;2022-09-03T10:51:27;3.97;;;1.83;;
17997;SDS011;9124;48.144;17.098;2022-09-03T10:55:24;1.90;;;1.80;;
17997;SDS011;9124;48.144;17.098;2022-09-03T11:03:39;1.92;;;1.83;;
17997;SDS011;9124;48.144;17.098;2022-09-03T11:07:45;2.60;;;2.13;;
17997;SDS011;9124;48.144;17.098;2022-09-03T11:11:30;3.58;;;1.90;;
17997;SDS011;9124;48.144;17.098;2022-09-03T11:15:25;2.33;;;1.98;;
17997;SDS011;9124;48.144;17.098;2022-09-03T11:19:10;2.97;;;1.38;;
17997;SDS011;9124;48.144;17.098;2022-09-03T11:22:56;3.30;;;1.80;;
17997;SDS011;9124;48.144;17.098;2022-09-03T11:26:36;2.20;;;1.90;;
17997;SDS011;9124;48.144;17.098;2022-09-03T11:30:23;1.75;;;1.65;;
17997;SDS011;9124;48.144;17.098;2022-09-03T11:34:14;3.80;;;1.40;;
17997;SDS011;9124;48.144;17.098;2022-09-03T11:37:58;3.40;;;1.70;;
17997;SDS011;9124;48.144;17.098;2022-09-03T11:41:38;2.08;;;1.88;;
17997;SDS011;9124;48.144;17.098;2022-09-03T11:45:48;3.92;;;1.60;;
17997;SDS011;9124;48.144;17.098;2022-09-03T11:49:29;5.30;;;1.65;;
17997;SDS011;9124;48.144;17.098;2022-09-03T11:53:34;4.15;;;1.58;;
17997;SDS011;9124;48.144;17.098;2022-09-03T11:57:13;3.05;;;1.58;;
17997;SDS011;9124;48.144;17.098;2022-09-03T12:21:51;5.18;;;1.40;;
17997;SDS011;9124;48.144;17.098;2022-09-03T12:25:32;3.28;;;1.80;;
17997;SDS011;9124;48.144;17.098;2022-09-03T12:29:19;2.88;;;1.40;;
17997;SDS011;9124;48.144;17.098;2022-09-03T12:33:02;3.33;;;1.80;;
17997;SDS011;9124;48.144;17.098;2022-09-03T12:36:50;5.53;;;1.60;;
17997;SDS011;9124;48.144;17.098;2022-09-03T12:40:29;3.88;;;1.67;;
17997;SDS011;9124;48.144;17.098;2022-09-03T12:44:09;2.13;;;1.42;;
17997;SDS011;9124;48.144;17.098;2022-09-03T12:48:01;4.47;;;1.60;;
17997;SDS011;9124;48.144;17.098;2022-09-03T12:51:50;2.20;;;1.25;;
17997;SDS011;9124;48.144;17.098;2022-09-03T12:55:38;2.20;;;1.60;;
17997;SDS011;9124;48.144;17.098;2022-09-03T12:59:20;1.85;;;1.40;;
17997;SDS011;9124;48.144;17.098;2022-09-03T13:10:52;2.05;;;1.50;;
17997;SDS011;9124;48.144;17.098;2022-09-03T13:14:41;9.38;;;1.70;;
17997;SDS011;9124;48.144;17.098;2022-09-03T13:26:45;4.43;;;1.58;;
17997;SDS011;9124;48.144;17.098;2022-09-03T13:30:53;1.60;;;1.50;;
17997;SDS011;9124;48.144;17.098;2022-09-03T13:34:36;3.00;;;1.45;;
17997;SDS011;9124;48.144;17.098;2022-09-03T13:42:10;3.72;;;1.63;;
17997;SDS011;9124;48.144;17.098;2022-09-03T13:50:26;1.55;;;1.45;;
17997;SDS011;9124;48.144;17.098;2022-09-03T13:54:10;2.03;;;1.30;;
17997;SDS011;9124;48.144;17.098;2022-09-03T13:57:58;2.00;;;1.60;;
17997;SDS011;9124;48.144;17.098;2022-09-03T14:15:42;3.08;;;1.40;;
17997;SDS011;9124;48.144;17.098;2022-09-03T14:26:59;3.03;;;1.70;;
17997;SDS011;9124;48.144;17.098;2022-09-03T14:30:53;1.17;;;1.13;;
17997;SDS011;9124;48.144;17.098;2022-09-03T14:46:41;2.58;;;1.50;;
17997;SDS011;9124;48.144;17.098;2022-09-03T15:05:49;3.40;;;1.90;;
17997;SDS011;9124;48.144;17.098;2022-09-03T15:10:02;2.35;;;1.30;;
17997;SDS011;9124;48.144;17.098;2022-09-03T15:17:54;1.40;;;1.30;;
17997;SDS011;9124;48.144;17.098;2022-09-03T15:26:28;1.25;;;1.15;;
17997;SDS011;9124;48.144;17.098;2022-09-03T15:29:51;1.75;;;1.50;;
17997;SDS011;9124;48.144;17.098;2022-09-03T15:33:49;5.63;;;1.42;;
17997;SDS011;9124;48.144;17.098;2022-09-03T15:37:51;2.55;;;1.50;;
17997;SDS011;9124;48.144;17.098;2022-09-03T15:42:00;3.80;;;1.42;;
17997;SDS011;9124;48.144;17.098;2022-09-03T16:06:17;4.88;;;1.77;;
17997;SDS011;9124;48.144;17.098;2022-09-03T16:13:38;2.33;;;1.77;;
17997;SDS011;9124;48.144;17.098;2022-09-03T16:21:36;1.30;;;1.20;;
17997;SDS011;9124;48.144;17.098;2022-09-03T16:25:24;5.57;;;1.77;;
17997;SDS011;9124;48.144;17.098;2022-09-03T16:29:26;4.13;;;1.52;;
17997;SDS011;9124;48.144;17.098;2022-09-03T16:52:59;2.88;;;1.50;;
17997;SDS011;9124;48.144;17.098;2022-09-03T16:57:06;2.25;;;2.00;;
17997;SDS011;9124;48.144;17.098;2022-09-03T17:04:52;1.95;;;1.83;;
17997;SDS011;9124;48.144;17.098;2022-09-03T17:09:05;1.73;;;1.63;;
17997;SDS011;9124;48.144;17.098;2022-09-03T17:21:22;2.38;;;1.48;;
17997;SDS011;9124;48.144;17.098;2022-09-03T17:25:17;3.20;;;1.70;;
17997;SDS011;9124;48.144;17.098;2022-09-03T18:02:58;5.70;;;2.10;;
17997;SDS011;9124;48.144;17.098;2022-09-03T18:18:29;1.90;;;1.80;;
17997;SDS011;9124;48.144;17.098;2022-09-03T18:22:07;2.22;;;2.13;;
17997;SDS011;9124;48.144;17.098;2022-09-03T18:26:04;6.07;;;1.83;;
17997;SDS011;9124;48.144;17.098;2022-09-03T18:30:07;3.95;;;1.77;;
17997;SDS011;9124;48.144;17.098;2022-09-03T18:34:06;2.20;;;1.73;;
17997;SDS011;9124;48.144;17.098;2022-09-03T18:38:02;3.28;;;1.70;;
17997;SDS011;9124;48.144;17.098;2022-09-03T18:46:49;4.45;;;1.70;;
17997;SDS011;9124;48.144;17.098;2022-09-03T18:51:07;1.85;;;1.75;;
17997;SDS011;9124;48.144;17.098;2022-09-03T19:13:41;5.35;;;1.98;;
17997;SDS011;9124;48.144;17.098;2022-09-03T19:21:53;10.75;;;1.92;;
17997;SDS011;9124;48.144;17.098;2022-09-03T19:25:58;3.75;;;1.92;;
17997;SDS011;9124;48.144;17.098;2022-09-03T19:30:07;5.78;;;1.73;;
17997;SDS011;9124;48.144;17.098;2022-09-03T19:34:28;2.55;;;1.92;;
17997;SDS011;9124;48.144;17.098;2022-09-03T19:38:39;2.28;;;2.00;;
17997;SDS011;9124;48.144;17.098;2022-09-03T19:46:53;2.40;;;1.83;;
17997;SDS011;9124;48.144;17.098;2022-09-03T19:55:29;4.00;;;1.92;;
17997;SDS011;9124;48.144;17.098;2022-09-03T19:59:32;5.28;;;2.10;;
17997;SDS011;9124;48.144;17.098;2022-09-03T20:03:30;2.20;;;2.03;;
17997;SDS011;9124;48.144;17.098;2022-09-03T20:07:25;5.20;;;2.30;;
17997;SDS011;9124;48.144;17.098;2022-09-03T20:11:22;4.25;;;2.25;;
17997;SDS011;9124;48.144;17.098;2022-09-03T20:15:03;3.80;;;1.60;;
17997;SDS011;9124;48.144;17.098;2022-09-03T20:18:54;6.63;;;1.83;;
17997;SDS011;9124;48.144;17.098;2022-09-03T20:26:55;3.63;;;1.80;;
17997;SDS011;9124;48.144;17.098;2022-09-03T20:31:05;3.78;;;1.83;;
17997;SDS011;9124;48.144;17.098;2022-09-03T20:35:04;3.72;;;1.70;;
17997;SDS011;9124;48.144;17.098;2022-09-03T20:50:53;2.13;;;1.90;;
17997;SDS011;9124;48.144;17.098;2022-09-03T20:54:55;2.65;;;2.05;;
17997;SDS011;9124;48.144;17.098;2022-09-03T21:18:23;3.33;;;1.88;;
17997;SDS011;9124;48.144;17.098;2022-09-03T21:22:20;2.65;;;2.40;;
17997;SDS011;9124;48.144;17.098;2022-09-03T21:29:58;4.35;;;2.15;;
17997;SDS011;9124;48.144;17.098;2022-09-03T21:33:38;2.75;;;2.63;;
17997;SDS011;9124;48.144;17.098;2022-09-03T21:37:15;3.55;;;3.25;;
17997;SDS011;9124;48.144;17.098;2022-09-03T21:41:13;9.45;;;3.13;;
17997;SDS011;9124;48.144;17.098;2022-09-03T21:49:14;4.07;;;3.33;;
17997;SDS011;9124;48.144;17.098;2022-09-03T21:53:08;3.03;;;2.70;;
17997;SDS011;9124;48.144;17.098;2022-09-03T22:01:08;5.82;;;3.05;;
17997;SDS011;9124;48.144;17.098;2022-09-03T22:04:51;5.80;;;3.13;;
17997;SDS011;9124;48.144;17.098;2022-09-03T22:08:30;3.75;;;3.45;;
17997;SDS011;9124;48.144;17.098;2022-09-03T22:12:41;4.07;;;3.20;;
17997;SDS011;9124;48.144;17.098;2022-09-03T22:16:36;3.90;;;3.17;;
17997;SDS011;9124;48.144;17.098;2022-09-03T22:20:14;4.97;;;3.33;;
17997;SDS011;9124;48.144;17.098;2022-09-03T22:23:57;4.50;;;3.97;;
17997;SDS011;9124;48.144;17.098;2022-09-03T22:28:13;7.10;;;4.03;;
17997;SDS011;9124;48.144;17.098;2022-09-03T22:32:11;8.13;;;3.65;;
17997;SDS011;9124;48.144;17.098;2022-09-03T22:39:44;6.43;;;3.15;;
17997;SDS011;9124;48.144;17.098;2022-09-03T22:51:10;3.40;;;3.10;;
17997;SDS011;9124;48.144;17.098;2022-09-03T23:06:43;3.17;;;2.97;;
17997;SDS011;9124;48.144;17.098;2022-09-03T23:10:28;3.72;;;3.20;;
17997;SDS011;9124;48.144;17.098;2022-09-03T23:14:11;6.57;;;3.33;;
17997;SDS011;9124;48.144;17.098;2022-09-03T23:21:59;10.10;;;3.20;;
17997;SDS011;9124;48.144;17.098;2022-09-03T23:25:41;4.20;;;2.70;;
17997;SDS011;9124;48.144;17.098;2022-09-03T23:33:08;3.30;;;3.00;;
17997;SDS011;9124;48.144;17.098;2022-09-03T23:40:33;4.63;;;2.72;;
17997;SDS011;9124;48.144;17.098;2022-09-03T23:44:39;4.50;;;2.90;;
17997;SDS011;9124;48.144;17.098;2022-09-03T23:52:47;6.88;;;2.63;;
